createdAt,value
2022-08-16T00:01:40.852Z,91.14
2022-08-16T00:06:39.493Z,90.84
2022-08-16T00:11:37.818Z,91.04
2022-08-16T00:17:06.680Z,90.68
2022-08-16T00:21:38.844Z,90.48
2022-08-16T00:26:44.960Z,90.07
2022-08-16T00:31:59.624Z,90.17
2022-08-16T00:36:47.316Z,90.32
2022-08-16T00:41:38.591Z,91.02
2022-08-16T00:46:37.438Z,91.02
2022-08-16T00:51:38.627Z,90.77
2022-08-16T00:56:56.171Z,91.47
2022-08-16T01:01:38.240Z,90.82
2022-08-16T01:06:48.580Z,91.17
2022-08-16T01:11:37.983Z,91.06
2022-08-16T01:16:37.899Z,91.13
2022-08-16T01:21:39.709Z,91.53
2022-08-16T01:26:36.866Z,90.32
2022-08-16T01:31:42.563Z,90.56
2022-08-16T01:36:40.720Z,90.26
2022-08-16T01:41:42.123Z,90.41
2022-08-16T01:46:39.838Z,90.10
2022-08-16T01:51:36.413Z,89.59
2022-08-16T01:56:36.442Z,89.50
2022-08-16T02:01:36.438Z,89.84
2022-08-16T02:06:38.615Z,90.20
2022-08-16T02:11:47.855Z,90.20
2022-08-16T02:16:37.273Z,90.30
2022-08-16T02:21:36.011Z,89.35
2022-08-16T02:26:36.151Z,88.68
2022-08-16T02:32:03.815Z,88.89
2022-08-16T02:36:47.335Z,89.13
2022-08-16T02:41:37.380Z,89.34
2022-08-16T02:46:35.870Z,88.79
2022-08-16T02:51:35.841Z,88.63
2022-08-16T02:56:35.835Z,88.87
2022-08-16T03:01:37.183Z,89.37
2022-08-16T03:06:38.869Z,89.48
2022-08-16T03:11:36.407Z,89.68
2022-08-16T03:16:39.104Z,89.37
2022-08-16T03:21:37.763Z,89.52
2022-08-16T03:26:35.203Z,89.28
2022-08-16T03:31:40.560Z,88.87
2022-08-16T03:36:39.213Z,89.97
2022-08-16T03:41:50.149Z,90.47
2022-08-16T03:46:47.420Z,89.72
2022-08-16T03:51:35.872Z,89.72
2022-08-16T03:56:34.780Z,88.92
2022-08-16T04:01:34.762Z,89.76
2022-08-16T04:06:34.667Z,89.46
2022-08-16T04:11:36.863Z,89.61
2022-08-16T04:16:34.558Z,90.37
2022-08-16T04:21:34.739Z,89.42
2022-08-16T04:26:34.430Z,87.76
2022-08-16T04:31:34.273Z,86.13
2022-08-16T04:36:37.225Z,82.48
2022-08-16T04:41:37.636Z,79.99
2022-08-16T04:47:02.765Z,78.74
2022-08-16T04:51:36.013Z,77.63
2022-08-16T04:56:34.189Z,77.06
2022-08-16T05:01:58.937Z,74.13
2022-08-16T05:06:42.146Z,69.86
2022-08-16T05:11:34.776Z,67.46
2022-08-16T05:16:33.744Z,65.50
2022-08-16T05:21:35.965Z,67.86
2022-08-16T05:26:34.890Z,68.26
2022-08-16T05:31:35.117Z,65.57
2022-08-16T05:36:37.202Z,64.90
2022-08-16T05:41:33.388Z,68.36
2022-08-16T05:46:34.543Z,70.23
2022-08-16T05:51:37.639Z,71.06
2022-08-16T05:56:37.720Z,72.13
2022-08-16T06:01:33.229Z,67.53
2022-08-16T06:06:34.672Z,67.80
2022-08-16T06:11:33.053Z,68.16
2022-08-16T06:16:33.084Z,62.66
2022-08-16T06:31:56.158Z,58.77
2022-08-16T06:36:59.305Z,56.30
2022-08-16T06:44:42.179Z,52.54
2022-08-16T06:54:18.998Z,53.90
2022-08-16T07:33:52.468Z,52.04
2022-08-16T07:38:50.656Z,52.54
2022-08-16T07:43:50.344Z,51.99
2022-08-16T07:48:55.350Z,51.07
2022-08-16T07:59:52.857Z,52.58
2022-08-16T08:10:35.027Z,54.12
2022-08-16T08:15:34.471Z,52.69
2022-08-16T08:20:33.739Z,51.07
2022-08-16T08:25:53.827Z,51.20
2022-08-16T08:30:51.542Z,51.50
2022-08-16T08:35:33.436Z,51.42
2022-08-16T08:46:28.182Z,51.54
2022-08-16T08:52:40.657Z,50.93
2022-08-16T08:57:40.646Z,52.36
2022-08-16T09:02:40.066Z,52.19
2022-08-16T09:08:00.959Z,49.87
2022-08-16T09:12:41.066Z,51.13
2022-08-16T09:17:51.660Z,50.04
2022-08-16T09:22:40.877Z,50.16
2022-08-16T09:27:56.833Z,50.85
2022-08-16T09:32:40.794Z,50.21
2022-08-16T09:37:40.590Z,50.07
2022-08-16T09:42:55.822Z,48.86
2022-08-16T09:47:57.147Z,48.14
2022-08-16T09:52:44.106Z,47.35
2022-08-16T09:57:40.302Z,47.79
2022-08-16T10:02:48.889Z,49.13
2022-08-16T10:07:55.867Z,48.21
2022-08-16T10:12:42.500Z,47.79
2022-08-16T10:17:39.247Z,49.54
2022-08-16T10:22:39.170Z,49.27
2022-08-16T10:27:46.148Z,49.37
2022-08-16T10:32:40.178Z,49.64
2022-08-16T10:37:39.109Z,48.14
2022-08-16T10:42:41.937Z,47.30
2022-08-16T10:47:38.915Z,47.52
2022-08-16T10:57:38.545Z,46.04
2022-08-16T11:02:58.872Z,45.18
2022-08-16T11:07:45.415Z,43.29
2022-08-16T11:12:39.573Z,43.52
2022-08-16T11:17:38.456Z,43.92
2022-08-16T11:22:48.533Z,43.38
2022-08-16T11:27:39.136Z,42.36
2022-08-16T11:32:38.124Z,42.07
2022-08-16T11:42:42.293Z,40.86
2022-08-16T11:47:37.963Z,41.02
2022-08-16T11:52:37.870Z,38.34
2022-08-16T11:57:37.964Z,37.42
2022-08-16T12:02:37.887Z,38.40
2022-08-16T12:07:38.652Z,38.66
2022-08-16T12:12:37.619Z,39.05
2022-08-16T12:17:38.829Z,39.52
2022-08-16T12:22:37.581Z,39.82
2022-08-16T12:27:39.476Z,38.68
2022-08-16T12:32:41.928Z,38.46
2022-08-16T12:37:38.911Z,38.68
2022-08-16T12:42:40.249Z,37.17
2022-08-16T12:47:38.197Z,38.23
2022-08-16T12:52:41.669Z,36.98
2022-08-16T12:57:38.134Z,38.17
2022-08-16T13:02:36.951Z,38.19
2022-08-16T13:07:42.587Z,37.62
2022-08-16T13:12:37.865Z,37.19
2022-08-16T13:17:37.974Z,37.09
2022-08-16T13:22:37.878Z,37.07
2022-08-16T13:28:02.604Z,36.47
2022-08-16T13:32:39.785Z,35.57
2022-08-16T13:37:36.556Z,36.83
2022-08-16T13:42:41.472Z,37.32
2022-08-16T13:47:36.658Z,35.58
2022-08-16T13:52:44.710Z,35.47
2022-08-16T13:57:53.563Z,34.61
2022-08-16T14:02:37.313Z,36.49
2022-08-16T14:07:36.412Z,36.06
2022-08-16T14:12:36.343Z,35.75
2022-08-16T14:18:14.791Z,34.36
2022-08-16T14:22:40.001Z,34.38
2022-08-16T14:27:39.034Z,36.08
2022-08-16T14:32:37.099Z,35.99
2022-08-16T14:37:35.909Z,36.42
2022-08-16T14:42:39.827Z,36.19
2022-08-16T14:47:35.739Z,36.09
2022-08-16T14:52:55.242Z,35.97
2022-08-16T14:57:36.750Z,36.66
2022-08-16T15:02:35.471Z,35.17
2022-08-16T15:07:35.581Z,35.06
2022-08-16T15:12:36.335Z,34.24
2022-08-16T15:17:36.998Z,34.34
2022-08-16T15:22:35.388Z,33.14
2022-08-16T15:27:35.767Z,34.18
2022-08-16T15:32:35.249Z,34.59
2022-08-16T15:37:53.360Z,35.31
2022-08-16T15:42:39.094Z,35.82
2022-08-16T15:47:35.565Z,37.34
2022-08-16T15:52:35.886Z,37.82
2022-08-16T15:57:41.151Z,38.32
2022-08-16T16:02:35.873Z,38.03
2022-08-16T16:07:34.756Z,37.54
2022-08-16T16:12:53.806Z,37.74
2022-08-16T16:17:35.597Z,37.76
2022-08-16T16:22:34.452Z,38.26
2022-08-16T16:27:34.433Z,39.15
2022-08-16T16:32:34.919Z,40.16
2022-08-16T16:37:34.304Z,39.87
2022-08-16T16:42:44.159Z,40.47
2022-08-16T16:47:40.713Z,41.69
2022-08-16T16:52:44.748Z,41.89
2022-08-16T16:57:35.307Z,41.02
2022-08-16T17:02:41.861Z,43.59
2022-08-16T17:07:34.992Z,42.32
2022-08-16T17:12:47.008Z,42.82
2022-08-16T17:17:59.431Z,43.31
2022-08-16T17:22:34.761Z,43.23
2022-08-16T17:27:34.247Z,44.61
2022-08-16T17:32:47.440Z,45.03
2022-08-16T17:37:50.741Z,44.83
2022-08-16T17:42:37.492Z,45.84
2022-08-16T17:47:33.436Z,45.57
2022-08-16T17:52:33.355Z,47.39
2022-08-16T17:57:33.295Z,47.53
2022-08-16T18:02:43.408Z,48.27
2022-08-16T18:07:34.154Z,49.39
2022-08-16T18:12:51.084Z,49.41
2022-08-16T18:17:34.046Z,50.45
2022-08-16T18:22:32.936Z,51.28
2022-08-16T18:27:32.847Z,52.29
2022-08-16T18:32:32.792Z,52.91
2022-08-16T18:37:33.773Z,53.94
2022-08-16T18:42:35.702Z,54.26
2022-08-16T18:47:32.785Z,54.75
2022-08-16T18:52:32.826Z,54.88
2022-08-16T18:57:32.451Z,55.51
2022-08-16T19:02:43.004Z,55.80
2022-08-16T19:07:35.149Z,56.33
2022-08-16T19:12:37.970Z,57.26
2022-08-16T19:17:33.341Z,57.58
2022-08-16T19:22:59.579Z,58.31
2022-08-16T19:27:33.743Z,59.04
2022-08-16T19:32:32.168Z,59.44
2022-08-16T19:37:32.061Z,59.97
2022-08-16T19:42:34.981Z,60.59
2022-08-16T19:47:31.862Z,61.32
2022-08-16T19:52:31.855Z,61.62
2022-08-16T19:57:31.841Z,62.55
2022-08-16T20:02:36.104Z,62.88
2022-08-16T20:07:32.753Z,63.39
2022-08-16T20:12:31.417Z,63.48
2022-08-16T20:17:31.487Z,63.71
2022-08-16T20:22:52.431Z,64.01
2022-08-16T20:27:32.349Z,65.38
2022-08-16T20:32:36.094Z,65.58
2022-08-16T20:37:32.207Z,65.58
2022-08-16T20:42:34.160Z,65.58
2022-08-16T20:47:31.007Z,65.88
2022-08-16T20:52:30.966Z,66.21
2022-08-16T20:57:30.940Z,66.21
2022-08-16T21:02:30.802Z,66.85
2022-08-16T21:07:30.724Z,67.05
2022-08-16T21:12:31.448Z,67.35
2022-08-16T21:17:30.611Z,67.68
2022-08-16T21:22:30.615Z,68.72
2022-08-16T21:27:30.457Z,69.15
2022-08-16T21:32:35.375Z,68.92
2022-08-16T21:37:31.422Z,68.82
2022-08-16T21:42:36.393Z,69.22
2022-08-16T21:47:30.222Z,70.39
2022-08-16T21:52:30.244Z,70.06
2022-08-16T21:57:36.270Z,70.26
2022-08-16T22:02:32.736Z,70.39
2022-08-16T22:07:29.980Z,70.89
2022-08-16T22:12:30.013Z,71.20
2022-08-16T22:17:29.843Z,71.73
2022-08-16T22:22:38.467Z,71.63
2022-08-16T22:27:29.806Z,71.94
2022-08-16T22:32:29.625Z,72.14
2022-08-16T22:37:29.686Z,72.67
2022-08-16T22:42:32.515Z,73.52
2022-08-16T22:47:29.443Z,74.12
2022-08-16T22:52:36.753Z,74.02
2022-08-16T22:57:30.324Z,74.22
2022-08-16T23:02:29.197Z,75.16
2022-08-16T23:07:29.152Z,75.56
2022-08-16T23:12:30.770Z,75.80
2022-08-16T23:17:29.100Z,76.10
2022-08-16T23:22:28.923Z,76.20
2022-08-16T23:27:29.051Z,76.61
2022-08-16T23:32:28.903Z,76.51
2022-08-16T23:37:34.654Z,76.40
2022-08-16T23:42:44.693Z,76.95
2022-08-16T23:47:29.624Z,77.79
2022-08-16T23:52:53.209Z,77.79
2022-08-16T23:57:29.541Z,77.79
